createdAt,value
2018-10-21T00:00:32.519Z,19.47
2018-10-21T00:01:32.723Z,19.47
2018-10-21T00:02:32.388Z,19.48
2018-10-21T00:03:32.403Z,19.47
2018-10-21T00:04:32.582Z,19.46
2018-10-21T00:05:32.431Z,19.48
2018-10-21T00:06:32.759Z,19.46
2018-10-21T00:07:32.775Z,19.47
2018-10-21T00:08:32.391Z,19.46
2018-10-21T00:09:32.445Z,19.46
2018-10-21T00:10:32.504Z,19.46
2018-10-21T00:11:32.800Z,19.45
2018-10-21T00:12:32.502Z,19.45
2018-10-21T00:13:32.743Z,19.45
2018-10-21T00:14:32.409Z,19.45
2018-10-21T00:15:34.091Z,19.46
2018-10-21T00:16:32.439Z,19.46
2018-10-21T00:17:32.633Z,19.45
2018-10-21T00:18:32.493Z,19.45
2018-10-21T00:19:32.317Z,19.46
2018-10-21T00:20:32.443Z,19.45
2018-10-21T00:21:32.294Z,19.44
2018-10-21T00:22:32.766Z,19.46
2018-10-21T00:23:32.527Z,19.45
2018-10-21T00:24:32.821Z,19.44
2018-10-21T00:25:32.363Z,19.45
2018-10-21T00:26:32.309Z,19.45
2018-10-21T00:27:32.688Z,19.45
2018-10-21T00:28:32.959Z,19.44
2018-10-21T00:29:32.312Z,19.47
2018-10-21T00:30:32.549Z,19.45
2018-10-21T00:31:32.939Z,19.45
2018-10-21T00:32:32.942Z,19.45
2018-10-21T00:33:32.407Z,19.44
2018-10-21T00:34:32.431Z,19.45
2018-10-21T00:35:32.698Z,19.43
2018-10-21T00:36:32.724Z,19.45
2018-10-21T00:37:32.519Z,19.43
2018-10-21T00:38:32.378Z,19.41
2018-10-21T00:39:32.540Z,19.42
2018-10-21T00:40:32.466Z,19.41
2018-10-21T00:41:32.297Z,19.44
2018-10-21T00:42:32.769Z,19.44
2018-10-21T00:43:32.362Z,19.44
2018-10-21T00:44:32.424Z,19.41
2018-10-21T00:45:33.096Z,19.43
2018-10-21T00:46:32.432Z,19.41
2018-10-21T00:47:32.394Z,19.42
2018-10-21T00:48:32.580Z,19.42
2018-10-21T00:49:33.044Z,19.42
2018-10-21T00:50:32.365Z,19.44
2018-10-21T00:51:32.629Z,19.42
2018-10-21T00:52:32.385Z,19.4
2018-10-21T00:53:32.314Z,19.44
2018-10-21T00:54:32.277Z,19.42
2018-10-21T00:55:32.429Z,19.41
2018-10-21T00:56:32.474Z,19.41
2018-10-21T00:57:32.344Z,19.43
2018-10-21T00:58:32.421Z,19.41
2018-10-21T00:59:32.310Z,19.4
2018-10-21T01:00:32.307Z,19.41
2018-10-21T01:01:32.242Z,19.42
2018-10-21T01:02:32.481Z,19.4
2018-10-21T01:03:32.349Z,19.4
2018-10-21T01:04:32.196Z,19.4
2018-10-21T01:05:32.288Z,19.39
2018-10-21T01:06:32.576Z,19.4
2018-10-21T01:07:32.455Z,19.4
2018-10-21T01:08:32.615Z,19.4
2018-10-21T01:09:32.756Z,19.4
2018-10-21T01:10:32.865Z,19.41
2018-10-21T01:11:32.332Z,19.39
2018-10-21T01:12:32.397Z,19.38
2018-10-21T01:13:32.533Z,19.38
2018-10-21T01:14:32.763Z,19.39
2018-10-21T01:15:32.827Z,19.37
2018-10-21T01:16:32.978Z,19.37
2018-10-21T01:17:32.388Z,19.4
2018-10-21T01:18:32.427Z,19.38
2018-10-21T01:19:32.347Z,19.4
2018-10-21T01:20:32.676Z,19.38
2018-10-21T01:21:32.476Z,19.37
2018-10-21T01:22:32.285Z,19.38
2018-10-21T01:23:32.706Z,19.37
2018-10-21T01:24:32.455Z,19.37
2018-10-21T01:25:32.609Z,19.37
2018-10-21T01:26:32.441Z,19.38
2018-10-21T01:27:32.651Z,19.38
2018-10-21T01:28:32.563Z,19.37
2018-10-21T01:29:32.400Z,19.38
2018-10-21T01:30:32.405Z,19.37
2018-10-21T01:31:32.528Z,19.39
2018-10-21T01:32:32.759Z,19.38
2018-10-21T01:33:32.846Z,19.37
2018-10-21T01:34:32.235Z,19.4
2018-10-21T01:35:32.307Z,19.37
2018-10-21T01:36:34.152Z,19.35
2018-10-21T01:37:32.424Z,19.37
2018-10-21T01:38:32.501Z,19.35
2018-10-21T01:39:32.447Z,19.37
2018-10-21T01:40:32.330Z,19.38
2018-10-21T01:41:32.477Z,19.38
2018-10-21T01:42:32.588Z,19.36
2018-10-21T01:43:32.552Z,19.36
2018-10-21T01:44:32.476Z,19.4
2018-10-21T01:45:32.461Z,19.35
2018-10-21T01:46:32.431Z,19.36
2018-10-21T01:47:32.391Z,19.36
2018-10-21T01:48:32.339Z,19.35
2018-10-21T01:49:32.407Z,19.36
2018-10-21T01:50:32.509Z,19.37
2018-10-21T01:51:32.275Z,19.36
2018-10-21T01:52:32.802Z,19.36
2018-10-21T01:53:32.793Z,19.35
2018-10-21T01:54:32.587Z,19.37
2018-10-21T01:55:32.453Z,19.36
2018-10-21T01:56:32.478Z,19.35
2018-10-21T01:57:32.302Z,19.35
2018-10-21T01:58:32.478Z,19.36
2018-10-21T01:59:32.496Z,19.35
2018-10-21T02:00:32.742Z,19.35
2018-10-21T02:01:32.237Z,19.33
2018-10-21T02:02:32.594Z,19.35
2018-10-21T02:03:32.892Z,19.32
2018-10-21T02:04:32.378Z,19.36
2018-10-21T02:05:32.486Z,19.33
2018-10-21T02:06:32.270Z,19.32
2018-10-21T02:07:32.733Z,19.31
2018-10-21T02:08:32.422Z,19.32
2018-10-21T02:09:32.305Z,19.33
2018-10-21T02:10:32.454Z,19.33
2018-10-21T02:11:32.394Z,19.33
2018-10-21T02:12:32.492Z,19.3
2018-10-21T02:13:32.395Z,19.33
2018-10-21T02:14:32.285Z,19.33
2018-10-21T02:15:32.311Z,19.33
2018-10-21T02:16:32.768Z,19.35
2018-10-21T02:17:32.778Z,19.32
2018-10-21T02:18:32.833Z,19.32
2018-10-21T02:19:32.420Z,19.33
2018-10-21T02:20:32.372Z,19.32
2018-10-21T02:21:32.451Z,19.32
2018-10-21T02:22:32.338Z,19.32
2018-10-21T02:23:32.446Z,19.32
2018-10-21T02:24:32.495Z,19.3
2018-10-21T02:25:32.351Z,19.31
2018-10-21T02:26:32.980Z,19.32
2018-10-21T02:27:32.921Z,19.31
2018-10-21T02:28:32.319Z,19.32
2018-10-21T02:29:32.259Z,19.32
2018-10-21T02:30:32.548Z,19.32
2018-10-21T02:31:32.781Z,19.32
2018-10-21T02:32:32.471Z,19.3
2018-10-21T02:33:33.828Z,19.32
2018-10-21T02:34:32.305Z,19.29
2018-10-21T02:35:32.347Z,19.31
2018-10-21T02:36:32.250Z,19.31
2018-10-21T02:37:32.232Z,19.31
2018-10-21T02:38:32.420Z,19.29
2018-10-21T02:39:32.458Z,19.29
2018-10-21T02:40:32.614Z,19.29
2018-10-21T02:41:32.372Z,19.32
2018-10-21T02:42:32.448Z,19.29
2018-10-21T02:43:32.765Z,19.32
2018-10-21T02:44:32.264Z,19.29
2018-10-21T02:45:32.370Z,19.29
2018-10-21T02:46:32.405Z,19.29
2018-10-21T02:47:32.242Z,19.29
2018-10-21T02:48:32.357Z,19.28
2018-10-21T02:49:32.702Z,19.3
2018-10-21T02:50:32.706Z,19.3
2018-10-21T02:51:32.967Z,19.29
2018-10-21T02:52:32.448Z,19.29
2018-10-21T02:53:32.802Z,19.31
2018-10-21T02:54:32.375Z,19.29
2018-10-21T02:55:32.319Z,19.3
2018-10-21T02:56:32.487Z,19.29
2018-10-21T02:57:32.905Z,19.29
2018-10-21T02:58:32.350Z,19.29
2018-10-21T02:59:32.381Z,19.28
2018-10-21T03:00:32.749Z,19.3
2018-10-21T03:01:32.481Z,19.29
2018-10-21T03:02:32.258Z,19.29
2018-10-21T03:03:32.425Z,19.29
2018-10-21T03:04:32.462Z,19.31
2018-10-21T03:05:32.379Z,19.26
2018-10-21T03:06:32.669Z,19.28
2018-10-21T03:07:32.304Z,19.29
2018-10-21T03:08:32.292Z,19.26
2018-10-21T03:09:32.339Z,19.29
2018-10-21T03:10:32.836Z,19.29
2018-10-21T03:11:32.313Z,19.27
2018-10-21T03:12:32.391Z,19.27
2018-10-21T03:13:32.430Z,19.27
2018-10-21T03:14:32.380Z,19.28
2018-10-21T03:15:32.278Z,19.27
2018-10-21T03:16:32.391Z,19.27
2018-10-21T03:17:32.627Z,19.28
2018-10-21T03:18:32.582Z,19.28
2018-10-21T03:19:32.609Z,19.28
2018-10-21T03:20:32.565Z,19.27
2018-10-21T03:21:32.481Z,19.25
2018-10-21T03:22:32.375Z,19.28
2018-10-21T03:23:32.683Z,19.27
2018-10-21T03:24:32.554Z,19.27
2018-10-21T03:25:32.299Z,19.28
2018-10-21T03:26:32.479Z,19.28
2018-10-21T03:27:32.308Z,19.26
2018-10-21T03:28:32.350Z,19.25
2018-10-21T03:29:32.569Z,19.27
2018-10-21T03:30:32.312Z,19.27
2018-10-21T03:31:32.642Z,19.25
2018-10-21T03:32:32.381Z,19.27
2018-10-21T03:33:33.639Z,19.25
2018-10-21T03:34:33.011Z,19.26
2018-10-21T03:35:32.767Z,19.26
2018-10-21T03:36:32.340Z,19.23
2018-10-21T03:37:32.734Z,19.25
2018-10-21T03:38:32.702Z,19.25
2018-10-21T03:39:32.441Z,19.26
2018-10-21T03:40:32.346Z,19.26
2018-10-21T03:41:32.274Z,19.23
2018-10-21T03:42:32.402Z,19.22
2018-10-21T03:43:32.270Z,19.25
2018-10-21T03:44:32.359Z,19.25
2018-10-21T03:45:32.358Z,19.25
2018-10-21T03:46:32.292Z,19.25
2018-10-21T03:47:32.252Z,19.24
2018-10-21T03:48:32.517Z,19.24
2018-10-21T03:49:32.262Z,19.25
2018-10-21T03:50:32.454Z,19.24
2018-10-21T03:51:32.305Z,19.23
2018-10-21T03:52:32.216Z,19.24
2018-10-21T03:53:32.421Z,19.25
2018-10-21T03:54:32.243Z,19.23
2018-10-21T03:55:32.182Z,19.24
2018-10-21T03:56:32.193Z,19.25
2018-10-21T03:57:32.364Z,19.25
2018-10-21T03:58:32.594Z,19.25
2018-10-21T03:59:32.416Z,19.25
2018-10-21T04:00:32.368Z,19.26
2018-10-21T04:01:32.314Z,19.24
2018-10-21T04:02:32.368Z,19.27
2018-10-21T04:03:32.784Z,19.25
2018-10-21T04:04:32.396Z,19.29
2018-10-21T04:05:32.255Z,19.28
2018-10-21T04:06:32.402Z,19.29
2018-10-21T04:07:32.255Z,19.29
2018-10-21T04:08:32.413Z,19.3
2018-10-21T04:09:32.309Z,19.3
2018-10-21T04:10:32.190Z,19.31
2018-10-21T04:11:32.315Z,19.32
2018-10-21T04:12:32.304Z,19.33
2018-10-21T04:13:32.526Z,19.36
2018-10-21T04:14:32.619Z,19.36
2018-10-21T04:15:32.447Z,19.37
2018-10-21T04:16:32.441Z,19.39
2018-10-21T04:17:32.348Z,19.39
2018-10-21T04:18:32.296Z,19.41
2018-10-21T04:19:32.364Z,19.41
2018-10-21T04:20:32.575Z,19.44
2018-10-21T04:21:32.480Z,19.43
2018-10-21T04:22:32.438Z,19.45
2018-10-21T04:23:32.296Z,19.47
2018-10-21T04:24:32.621Z,19.5
2018-10-21T04:25:32.343Z,19.5
2018-10-21T04:26:32.451Z,19.51
2018-10-21T04:27:32.397Z,19.53
2018-10-21T04:28:32.263Z,19.54
2018-10-21T04:29:32.498Z,19.57
2018-10-21T04:30:32.740Z,19.56
2018-10-21T04:31:32.454Z,19.58
2018-10-21T04:32:32.204Z,19.58
2018-10-21T04:33:32.417Z,19.61
2018-10-21T04:34:32.565Z,19.6
2018-10-21T04:35:33.086Z,19.62
2018-10-21T04:36:32.438Z,19.66
2018-10-21T04:37:32.281Z,19.66
2018-10-21T04:38:32.358Z,19.65
2018-10-21T04:39:32.196Z,19.69
2018-10-21T04:40:32.158Z,19.69
2018-10-21T04:41:32.310Z,19.71
2018-10-21T04:42:32.318Z,19.71
2018-10-21T04:43:32.797Z,19.71
2018-10-21T04:44:32.317Z,19.75
2018-10-21T04:45:32.330Z,19.77
2018-10-21T04:46:33.028Z,19.77
2018-10-21T04:47:32.458Z,19.79
2018-10-21T04:48:32.424Z,19.79
2018-10-21T04:49:32.744Z,19.81
2018-10-21T04:50:32.372Z,19.84
2018-10-21T04:51:32.402Z,19.83
2018-10-21T04:52:32.433Z,19.85
2018-10-21T04:53:32.405Z,19.86
2018-10-21T04:54:32.544Z,19.89
2018-10-21T04:55:32.492Z,19.88
2018-10-21T04:56:32.347Z,19.91
2018-10-21T04:57:32.362Z,19.94
2018-10-21T04:58:32.436Z,19.94
2018-10-21T04:59:32.253Z,19.95
2018-10-21T05:00:32.688Z,19.97
2018-10-21T05:01:32.246Z,19.98
2018-10-21T05:02:32.263Z,19.99
2018-10-21T05:03:32.409Z,19.99
2018-10-21T05:04:32.652Z,20.02
2018-10-21T05:05:32.463Z,20.02
2018-10-21T05:06:32.203Z,20.01
2018-10-21T05:07:33.014Z,20.02
2018-10-21T05:08:32.221Z,20.01
2018-10-21T05:09:32.278Z,20.04
2018-10-21T05:10:32.314Z,20.04
2018-10-21T05:11:32.600Z,20.07
2018-10-21T05:12:32.308Z,20.07
2018-10-21T05:13:32.176Z,20.06
2018-10-21T05:14:32.517Z,20.1
2018-10-21T05:15:32.446Z,20.1
2018-10-21T05:16:32.891Z,20.1
2018-10-21T05:17:32.168Z,20.11
2018-10-21T05:18:32.518Z,20.12
2018-10-21T05:19:32.360Z,20.13
2018-10-21T05:20:32.385Z,20.14
2018-10-21T05:21:32.638Z,20.16
2018-10-21T05:22:32.795Z,20.15
2018-10-21T05:23:32.172Z,20.14
2018-10-21T05:24:32.415Z,20.17
2018-10-21T05:25:32.820Z,20.16
2018-10-21T05:26:32.426Z,20.19
2018-10-21T05:27:32.334Z,20.19
2018-10-21T05:28:32.338Z,20.2
2018-10-21T05:29:32.603Z,20.24
2018-10-21T05:30:32.357Z,20.22
2018-10-21T05:31:32.402Z,20.24
2018-10-21T05:32:32.333Z,20.24
2018-10-21T05:33:32.301Z,20.25
2018-10-21T05:34:32.344Z,20.28
2018-10-21T05:35:32.328Z,20.26
2018-10-21T05:36:32.478Z,20.29
2018-10-21T05:37:32.241Z,20.28
2018-10-21T05:38:32.178Z,20.3
2018-10-21T05:39:32.247Z,20.3
2018-10-21T05:40:32.854Z,20.29
2018-10-21T05:41:32.194Z,20.31
2018-10-21T05:42:32.382Z,20.31
2018-10-21T05:43:32.326Z,20.3
2018-10-21T05:44:32.329Z,20.32
2018-10-21T05:45:32.273Z,20.34
2018-10-21T05:46:32.494Z,20.34
2018-10-21T05:47:32.345Z,20.35
2018-10-21T05:48:32.174Z,20.37
2018-10-21T05:49:32.357Z,20.36
2018-10-21T05:50:32.397Z,20.35
2018-10-21T05:51:32.204Z,20.37
2018-10-21T05:52:32.456Z,20.36
2018-10-21T05:53:32.564Z,20.36
2018-10-21T05:54:32.647Z,20.39
2018-10-21T05:55:32.533Z,20.37
2018-10-21T05:56:32.295Z,20.39
2018-10-21T05:57:32.290Z,20.39
2018-10-21T05:58:32.193Z,20.4
2018-10-21T05:59:32.351Z,20.39
2018-10-21T06:00:32.488Z,20.4
2018-10-21T06:01:32.336Z,20.42
2018-10-21T06:02:32.580Z,20.44
2018-10-21T06:03:32.316Z,20.41
2018-10-21T06:04:32.392Z,20.42
2018-10-21T06:05:32.475Z,20.44
2018-10-21T06:06:32.286Z,20.44
2018-10-21T06:07:32.257Z,20.43
2018-10-21T06:08:32.303Z,20.44
2018-10-21T06:09:32.427Z,20.45
2018-10-21T06:10:32.649Z,20.48
2018-10-21T06:11:32.182Z,20.46
2018-10-21T06:12:32.315Z,20.48
2018-10-21T06:13:32.326Z,20.48
2018-10-21T06:14:32.157Z,20.5
2018-10-21T06:15:32.101Z,20.48
2018-10-21T06:16:32.376Z,20.49
2018-10-21T06:17:32.550Z,20.49
2018-10-21T06:18:32.458Z,20.49
2018-10-21T06:19:32.323Z,20.5
2018-10-21T06:20:32.246Z,20.51
2018-10-21T06:21:32.157Z,20.49
2018-10-21T06:22:32.581Z,20.5
2018-10-21T06:23:32.682Z,20.5
2018-10-21T06:24:32.355Z,20.51
2018-10-21T06:25:32.307Z,20.53
2018-10-21T06:26:32.404Z,20.53
2018-10-21T06:27:32.693Z,20.5
2018-10-21T06:28:33.072Z,20.5
2018-10-21T06:29:32.386Z,20.53
2018-10-21T06:30:32.241Z,20.51
2018-10-21T06:31:32.424Z,20.53
2018-10-21T06:32:32.558Z,20.51
2018-10-21T06:33:32.737Z,20.54
2018-10-21T06:34:32.767Z,20.5
2018-10-21T06:35:32.902Z,20.51
2018-10-21T06:36:32.537Z,20.5
2018-10-21T06:37:32.345Z,20.53
2018-10-21T06:38:32.194Z,20.53
2018-10-21T06:39:32.243Z,20.49
2018-10-21T06:40:32.423Z,20.48
2018-10-21T06:41:32.858Z,20.48
2018-10-21T06:42:32.227Z,20.5
2018-10-21T06:43:32.251Z,20.49
2018-10-21T06:44:32.122Z,20.51
2018-10-21T06:45:33.035Z,20.49
2018-10-21T06:46:32.351Z,20.5
2018-10-21T06:47:32.372Z,20.49
2018-10-21T06:48:33.151Z,20.48
2018-10-21T06:49:32.355Z,20.48
2018-10-21T06:50:32.574Z,20.48
2018-10-21T06:51:32.731Z,20.48
2018-10-21T06:52:32.430Z,20.48
2018-10-21T06:53:32.338Z,20.48
2018-10-21T06:54:32.602Z,20.47
2018-10-21T06:55:32.406Z,20.48
2018-10-21T06:56:33.464Z,20.47
2018-10-21T06:57:33.612Z,20.46
2018-10-21T06:58:32.594Z,20.46
2018-10-21T06:59:32.481Z,20.47
2018-10-21T07:00:32.147Z,20.46
2018-10-21T07:01:32.393Z,20.45
2018-10-21T07:02:32.262Z,20.45
2018-10-21T07:03:32.169Z,20.45
2018-10-21T07:04:32.900Z,20.45
2018-10-21T07:05:32.270Z,20.44
2018-10-21T07:06:32.147Z,20.45
2018-10-21T07:07:32.276Z,20.43
2018-10-21T07:08:32.289Z,20.44
2018-10-21T07:09:32.323Z,20.42
2018-10-21T07:10:32.170Z,20.44
2018-10-21T07:11:32.100Z,20.42
2018-10-21T07:12:32.270Z,20.42
2018-10-21T07:13:32.214Z,20.44
2018-10-21T07:14:32.402Z,20.41
2018-10-21T07:15:32.865Z,20.41
2018-10-21T07:16:33.708Z,20.42
2018-10-21T07:17:32.367Z,20.41
2018-10-21T07:18:32.419Z,20.42
2018-10-21T07:19:32.406Z,20.41
2018-10-21T07:20:32.203Z,20.41
2018-10-21T07:21:32.354Z,20.41
2018-10-21T07:22:32.327Z,20.4
2018-10-21T07:23:32.183Z,20.39
2018-10-21T07:24:32.332Z,20.41
2018-10-21T07:25:32.435Z,20.39
2018-10-21T07:26:32.243Z,20.37
2018-10-21T07:27:32.191Z,20.37
2018-10-21T07:28:33.116Z,20.37
2018-10-21T07:29:32.461Z,20.35
2018-10-21T07:30:32.489Z,20.35
2018-10-21T07:31:32.343Z,20.35
2018-10-21T07:32:32.472Z,20.35
2018-10-21T07:33:32.545Z,20.34
2018-10-21T07:34:32.445Z,20.34
2018-10-21T07:35:32.252Z,20.36
2018-10-21T07:36:32.904Z,20.35
2018-10-21T07:37:32.181Z,20.34
2018-10-21T07:38:32.296Z,20.33
2018-10-21T07:39:32.359Z,20.33
2018-10-21T07:40:32.463Z,20.31
2018-10-21T07:41:32.169Z,20.32
2018-10-21T07:42:32.284Z,20.3
2018-10-21T07:43:32.344Z,20.32
2018-10-21T07:44:32.213Z,20.3
2018-10-21T07:45:32.241Z,20.29
2018-10-21T07:46:32.888Z,20.22
2018-10-21T07:47:32.293Z,20.15
2018-10-21T07:48:32.233Z,20.06
2018-10-21T07:49:32.198Z,20.02
2018-10-21T07:50:32.453Z,19.9
2018-10-21T07:51:32.282Z,19.82
2018-10-21T07:52:32.192Z,19.8
2018-10-21T07:53:32.321Z,19.82
2018-10-21T07:54:32.252Z,19.82
2018-10-21T07:55:32.903Z,19.82
2018-10-21T07:56:32.176Z,19.84
2018-10-21T07:57:32.441Z,19.84
2018-10-21T07:58:32.216Z,19.87
2018-10-21T07:59:32.441Z,19.89
2018-10-21T08:00:32.496Z,19.88
2018-10-21T08:01:33.169Z,19.9
2018-10-21T08:02:32.332Z,19.94
2018-10-21T08:03:33.088Z,19.95
2018-10-21T08:04:32.306Z,19.98
2018-10-21T08:05:32.238Z,19.96
2018-10-21T08:06:32.349Z,20
2018-10-21T08:07:32.350Z,20
2018-10-21T08:08:32.691Z,20.01
2018-10-21T08:09:32.282Z,20.02
2018-10-21T08:10:32.437Z,20.02
2018-10-21T08:11:32.299Z,20.03
2018-10-21T08:12:32.088Z,20.07
2018-10-21T08:13:32.194Z,20.06
2018-10-21T08:14:32.421Z,20.09
2018-10-21T08:15:32.517Z,20.1
2018-10-21T08:16:32.213Z,20.11
2018-10-21T08:17:32.220Z,20.12
2018-10-21T08:18:32.405Z,20.12
2018-10-21T08:19:32.195Z,20.15
2018-10-21T08:20:32.353Z,20.14
2018-10-21T08:21:32.398Z,20.15
2018-10-21T08:22:32.175Z,20.14
2018-10-21T08:23:32.161Z,20.16
2018-10-21T08:24:32.211Z,20.13
2018-10-21T08:25:32.223Z,20.16
2018-10-21T08:26:32.420Z,20.17
2018-10-21T08:27:32.106Z,20.17
2018-10-21T08:28:32.185Z,20.17
2018-10-21T08:29:32.374Z,20.19
2018-10-21T08:30:32.255Z,20.17
2018-10-21T08:31:32.343Z,20.18
2018-10-21T08:32:32.805Z,20.19
2018-10-21T08:33:32.112Z,20.18
2018-10-21T08:34:32.244Z,20.18
2018-10-21T08:35:32.049Z,20.19
2018-10-21T08:36:32.505Z,20.19
2018-10-21T08:37:32.077Z,20.2
2018-10-21T08:38:32.272Z,20.2
2018-10-21T08:39:32.611Z,20.21
2018-10-21T08:40:32.241Z,20.19
2018-10-21T08:41:32.678Z,20.21
2018-10-21T08:42:32.562Z,20.2
2018-10-21T08:43:32.329Z,20.2
2018-10-21T08:44:32.541Z,20.2
2018-10-21T08:45:32.281Z,20.21
2018-10-21T08:46:32.648Z,20.2
2018-10-21T08:47:32.486Z,20.2
2018-10-21T08:48:32.157Z,20.18
2018-10-21T08:49:32.495Z,20.19
2018-10-21T08:50:32.841Z,20.2
2018-10-21T08:51:32.185Z,20.17
2018-10-21T08:52:32.265Z,20.17
2018-10-21T08:53:32.332Z,20.16
2018-10-21T08:54:32.198Z,20.18
2018-10-21T08:55:32.243Z,20.17
2018-10-21T08:56:32.309Z,20.16
2018-10-21T08:57:32.114Z,20.16
2018-10-21T08:58:32.537Z,20.15
2018-10-21T08:59:32.335Z,20.16
2018-10-21T09:00:32.178Z,20.13
2018-10-21T09:01:32.147Z,20.14
2018-10-21T09:02:32.660Z,20.14
2018-10-21T09:03:32.256Z,20.13
2018-10-21T09:04:32.385Z,20.15
2018-10-21T09:05:32.221Z,20.13
2018-10-21T09:06:32.095Z,20.14
2018-10-21T09:07:32.446Z,20.14
2018-10-21T09:08:32.355Z,20.14
2018-10-21T09:09:32.418Z,20.13
2018-10-21T09:10:33.665Z,20.12
2018-10-21T09:11:32.361Z,20.12
2018-10-21T09:12:32.513Z,20.12
2018-10-21T09:13:32.380Z,20.14
2018-10-21T09:14:32.328Z,20.13
2018-10-21T09:15:33.212Z,20.12
2018-10-21T09:16:33.095Z,20.12
2018-10-21T09:17:32.422Z,20.1
2018-10-21T09:18:32.261Z,20.1
2018-10-21T09:19:32.116Z,20.1
2018-10-21T09:20:32.278Z,20.11
2018-10-21T09:21:32.218Z,20.12
2018-10-21T09:22:32.292Z,20.09
2018-10-21T09:23:32.390Z,20.13
2018-10-21T09:24:32.181Z,20.07
2018-10-21T09:25:32.797Z,20.13
2018-10-21T09:26:32.169Z,20.1
2018-10-21T09:27:32.238Z,20.09
2018-10-21T09:28:32.121Z,20.09
2018-10-21T09:29:32.301Z,20.04
2018-10-21T09:30:32.167Z,20.02
2018-10-21T09:31:32.289Z,20.01
2018-10-21T09:32:32.387Z,20.01
2018-10-21T09:33:32.291Z,20
2018-10-21T09:34:32.566Z,20.02
2018-10-21T09:35:32.115Z,20
2018-10-21T09:36:32.258Z,20.01
2018-10-21T09:37:32.200Z,20
2018-10-21T09:38:32.774Z,19.99
2018-10-21T09:39:32.224Z,20.01
2018-10-21T09:40:32.322Z,19.99
2018-10-21T09:41:32.285Z,20.01
2018-10-21T09:42:32.100Z,19.99
2018-10-21T09:43:32.409Z,20.03
2018-10-21T09:44:32.295Z,20.01
2018-10-21T09:45:32.473Z,20.02
2018-10-21T09:46:32.441Z,20.01
2018-10-21T09:47:32.327Z,20
2018-10-21T09:48:32.372Z,20.01
2018-10-21T09:49:32.629Z,20.01
2018-10-21T09:50:32.288Z,20.01
2018-10-21T09:51:32.427Z,20
2018-10-21T09:52:32.196Z,20
2018-10-21T09:53:32.257Z,20.01
2018-10-21T09:54:32.487Z,20.01
2018-10-21T09:55:32.167Z,20.01
2018-10-21T09:56:32.306Z,20.02
2018-10-21T09:57:32.509Z,20.01
2018-10-21T09:58:32.683Z,20.02
2018-10-21T09:59:32.255Z,20.04
2018-10-21T10:00:32.090Z,20.04
2018-10-21T10:01:32.548Z,20.04
2018-10-21T10:02:32.448Z,20.04
2018-10-21T10:03:32.219Z,20.04
2018-10-21T10:04:32.145Z,20.03
2018-10-21T10:05:32.211Z,20.04
2018-10-21T10:06:32.285Z,20.05
2018-10-21T10:07:32.139Z,20.05
2018-10-21T10:08:32.298Z,20.07
2018-10-21T10:09:32.130Z,20.07
2018-10-21T10:10:32.282Z,20.1
2018-10-21T10:11:32.331Z,20.06
2018-10-21T10:12:32.270Z,20.12
2018-10-21T10:13:32.213Z,20.09
2018-10-21T10:14:32.132Z,20.11
2018-10-21T10:15:32.501Z,20.11
2018-10-21T10:16:32.431Z,20.07
2018-10-21T10:17:32.665Z,20.12
2018-10-21T10:18:32.355Z,20.15
2018-10-21T10:20:02.284Z,20.17
2018-10-21T10:21:02.313Z,20.15
2018-10-21T10:22:02.343Z,20.17
2018-10-21T10:23:02.418Z,20.17
2018-10-21T10:24:02.968Z,20.17
2018-10-21T10:25:02.667Z,20.16
2018-10-21T10:26:02.220Z,20.2
2018-10-21T10:27:02.072Z,20.18
2018-10-21T10:28:02.905Z,20.21
2018-10-21T10:29:02.244Z,20.2
2018-10-21T10:30:03.523Z,20.21
2018-10-21T10:31:24.042Z,20.18
2018-10-21T10:32:24.185Z,20.2
2018-10-21T10:33:24.356Z,20.22
2018-10-21T10:34:24.259Z,20.22
2018-10-21T10:35:24.173Z,20.19
2018-10-21T10:36:24.226Z,20.24
2018-10-21T10:37:24.306Z,20.22
2018-10-21T10:38:24.162Z,20.25
2018-10-21T10:39:24.112Z,20.25
2018-10-21T10:40:24.095Z,20.28
2018-10-21T10:41:24.534Z,20.27
2018-10-21T10:42:24.416Z,20.31
2018-10-21T10:43:43.703Z,20.29
2018-10-21T10:44:43.923Z,20.32
2018-10-21T10:45:43.749Z,20.35
2018-10-21T10:47:13.702Z,20.34
2018-10-21T10:48:13.520Z,20.37
2018-10-21T10:49:14.307Z,20.39
2018-10-21T10:50:13.871Z,20.36
2018-10-21T10:52:07.396Z,20.41
2018-10-21T10:53:37.775Z,20.41
2018-10-21T10:58:26.462Z,20.46
2018-10-21T10:59:09.710Z,20.49
2018-10-21T11:00:10.724Z,20.54
2018-10-21T11:01:16.135Z,20.56
2018-10-21T11:02:15.295Z,20.59
2018-10-21T11:03:15.339Z,20.6
2018-10-21T11:04:15.963Z,20.6
2018-10-21T11:05:15.189Z,20.57
2018-10-21T11:06:15.786Z,20.61
2018-10-21T11:07:16.402Z,20.61
2018-10-21T11:08:15.448Z,20.64
2018-10-21T11:09:15.800Z,20.61
2018-10-21T11:10:16.457Z,20.63
2018-10-21T11:11:15.418Z,20.6
2018-10-21T11:12:15.221Z,20.61
2018-10-21T11:13:16.330Z,20.61
2018-10-21T11:14:15.407Z,20.6
2018-10-21T11:15:15.457Z,20.61
2018-10-21T11:16:16.361Z,20.61
2018-10-21T11:17:15.338Z,20.58
2018-10-21T11:18:15.163Z,20.57
2018-10-21T11:19:16.173Z,20.59
2018-10-21T11:21:31.103Z,20.57
2018-10-21T11:22:31.052Z,20.59
2018-10-21T11:24:00.379Z,20.6
2018-10-21T11:25:00.600Z,20.58
2018-10-21T11:26:00.605Z,20.61
2018-10-21T11:27:00.615Z,20.58
2018-10-21T11:27:44.924Z,20.59
2018-10-21T11:28:29.080Z,20.57
2018-10-21T11:29:28.790Z,20.58
2018-10-21T11:30:28.892Z,20.63
2018-10-21T11:31:29.067Z,20.63
2018-10-21T11:32:28.984Z,20.62
2018-10-21T11:33:29.047Z,20.66
2018-10-21T11:34:28.889Z,20.68
2018-10-21T11:35:28.836Z,20.65
2018-10-21T11:36:29.363Z,20.63
2018-10-21T11:37:30.289Z,20.71
2018-10-21T11:38:29.282Z,20.66
2018-10-21T11:39:29.076Z,20.7
2018-10-21T11:40:28.919Z,20.73
2018-10-21T11:41:28.957Z,20.66
2018-10-21T11:42:29.235Z,20.71
2018-10-21T11:43:29.096Z,20.66
2018-10-21T11:44:29.041Z,20.63
2018-10-21T11:45:29.360Z,20.63
2018-10-21T11:46:29.787Z,20.69
2018-10-21T11:47:29.460Z,20.64
2018-10-21T11:48:29.091Z,20.66
2018-10-21T11:49:29.097Z,20.66
2018-10-21T11:50:28.952Z,20.65
2018-10-21T11:51:28.882Z,20.63
2018-10-21T11:52:29.578Z,20.66
2018-10-21T11:53:29.339Z,20.62
2018-10-21T11:54:29.438Z,20.61
2018-10-21T11:55:28.992Z,20.64
2018-10-21T11:56:29.341Z,20.61
2018-10-21T11:57:29.038Z,20.61
2018-10-21T11:58:29.496Z,20.63
2018-10-21T11:59:28.856Z,20.55
2018-10-21T12:00:28.984Z,20.57
2018-10-21T12:01:29.055Z,20.59
2018-10-21T12:02:28.971Z,20.54
2018-10-21T12:03:29.371Z,20.56
2018-10-21T12:04:29.189Z,20.6
2018-10-21T12:05:29.286Z,20.57
2018-10-21T12:06:30.199Z,20.56
2018-10-21T12:07:28.915Z,20.6
2018-10-21T12:08:29.006Z,20.57
2018-10-21T12:09:29.173Z,20.55
2018-10-21T12:10:29.477Z,20.59
2018-10-21T12:11:29.232Z,20.56
2018-10-21T12:12:29.093Z,20.58
2018-10-21T12:13:29.103Z,20.58
2018-10-21T12:14:28.939Z,20.56
2018-10-21T12:15:29.054Z,20.55
2018-10-21T12:16:29.283Z,20.55
2018-10-21T12:17:29.010Z,20.55
2018-10-21T12:18:29.110Z,20.53
2018-10-21T12:19:29.051Z,20.54
2018-10-21T12:20:29.295Z,20.54
2018-10-21T12:21:29.331Z,20.54
2018-10-21T12:22:29.207Z,20.54
2018-10-21T12:23:29.862Z,20.5
2018-10-21T12:24:29.639Z,20.51
2018-10-21T12:25:29.626Z,20.53
2018-10-21T12:26:29.190Z,20.51
2018-10-21T12:27:28.948Z,20.47
2018-10-21T12:28:29.063Z,20.53
2018-10-21T12:29:29.140Z,20.47
2018-10-21T12:30:28.953Z,20.45
2018-10-21T12:31:29.280Z,20.47
2018-10-21T12:32:29.505Z,20.45
2018-10-21T12:33:28.955Z,20.45
2018-10-21T12:34:29.141Z,20.49
2018-10-21T12:35:29.157Z,20.47
2018-10-21T12:36:29.062Z,20.5
2018-10-21T12:37:28.965Z,20.55
2018-10-21T12:38:29.126Z,20.55
2018-10-21T12:39:29.012Z,20.56
2018-10-21T12:40:29.355Z,20.58
2018-10-21T12:41:29.127Z,20.51
2018-10-21T12:42:28.945Z,20.5
2018-10-21T12:43:29.008Z,20.51
2018-10-21T12:44:29.084Z,20.54
2018-10-21T12:45:29.772Z,20.55
2018-10-21T12:46:29.241Z,20.59
2018-10-21T12:47:29.148Z,20.55
2018-10-21T12:48:29.356Z,20.55
2018-10-21T12:49:28.999Z,20.59
2018-10-21T12:50:29.098Z,20.55
2018-10-21T12:51:29.016Z,20.54
2018-10-21T12:52:29.308Z,20.58
2018-10-21T12:53:29.096Z,20.53
2018-10-21T12:54:29.483Z,20.53
2018-10-21T12:55:29.426Z,20.54
2018-10-21T12:56:29.251Z,20.48
2018-10-21T12:57:29.018Z,20.49
2018-10-21T12:58:28.962Z,20.53
2018-10-21T12:59:29.063Z,20.53
2018-10-21T13:00:29.134Z,20.54
2018-10-21T13:01:28.933Z,20.54
2018-10-21T13:02:28.940Z,20.51
2018-10-21T13:03:29.117Z,20.53